sensor_id;sensor_type;location;lat;lon;timestamp;temperature;humidity
80176;DHT22;69501;42.124;24.722;2023-05-21T00:00:49;19.60;57.40
80176;DHT22;69501;42.124;24.722;2023-05-21T00:03:16;19.60;57.30
80176;DHT22;69501;42.124;24.722;2023-05-21T00:05:42;19.70;57.30
80176;DHT22;69501;42.124;24.722;2023-05-21T00:08:09;19.70;57.40
80176;DHT22;69501;42.124;24.722;2023-05-21T00:10:35;19.70;57.40
80176;DHT22;69501;42.124;24.722;2023-05-21T00:13:01;19.80;57.30
80176;DHT22;69501;42.124;24.722;2023-05-21T00:15:27;19.80;57.30
80176;DHT22;69501;42.124;24.722;2023-05-21T00:17:52;19.80;57.30
80176;DHT22;69501;42.124;24.722;2023-05-21T00:20:18;19.90;57.20
80176;DHT22;69501;42.124;24.722;2023-05-21T00:22:44;19.90;57.10
80176;DHT22;69501;42.124;24.722;2023-05-21T00:25:10;19.90;57.00
80176;DHT22;69501;42.124;24.722;2023-05-21T00:27:36;19.90;57.10
80176;DHT22;69501;42.124;24.722;2023-05-21T00:30:03;19.80;57.20
80176;DHT22;69501;42.124;24.722;2023-05-21T00:32:28;19.90;57.40
80176;DHT22;69501;42.124;24.722;2023-05-21T00:34:54;19.80;57.50
80176;DHT22;69501;42.124;24.722;2023-05-21T00:37:20;19.70;57.60
80176;DHT22;69501;42.124;24.722;2023-05-21T00:39:46;19.80;57.80
80176;DHT22;69501;42.124;24.722;2023-05-21T00:42:12;19.70;57.80
80176;DHT22;69501;42.124;24.722;2023-05-21T00:44:45;19.70;57.90
80176;DHT22;69501;42.124;24.722;2023-05-21T00:47:12;19.60;58.20
80176;DHT22;69501;42.124;24.722;2023-05-21T00:49:38;19.50;58.70
80176;DHT22;69501;42.124;24.722;2023-05-21T00:52:05;19.30;59.30
80176;DHT22;69501;42.124;24.722;2023-05-21T00:54:31;19.30;59.60
80176;DHT22;69501;42.124;24.722;2023-05-21T00:56:57;19.30;59.80
80176;DHT22;69501;42.124;24.722;2023-05-21T00:59:24;19.20;60.00
80176;DHT22;69501;42.124;24.722;2023-05-21T01:01:51;19.20;60.20
80176;DHT22;69501;42.124;24.722;2023-05-21T01:04:22;19.10;60.30
80176;DHT22;69501;42.124;24.722;2023-05-21T01:06:48;19.20;60.20
80176;DHT22;69501;42.124;24.722;2023-05-21T01:09:13;19.20;60.20
80176;DHT22;69501;42.124;24.722;2023-05-21T01:11:45;19.20;60.80
80176;DHT22;69501;42.124;24.722;2023-05-21T01:14:12;19.10;60.20
80176;DHT22;69501;42.124;24.722;2023-05-21T01:16:41;19.00;60.30
80176;DHT22;69501;42.124;24.722;2023-05-21T01:19:09;19.00;60.50
80176;DHT22;69501;42.124;24.722;2023-05-21T01:21:40;18.90;60.40
80176;DHT22;69501;42.124;24.722;2023-05-21T01:24:06;18.90;60.50
80176;DHT22;69501;42.124;24.722;2023-05-21T01:26:32;18.80;60.40
80176;DHT22;69501;42.124;24.722;2023-05-21T01:29:06;18.80;60.50
80176;DHT22;69501;42.124;24.722;2023-05-21T01:34:10;18.90;60.20
80176;DHT22;69501;42.124;24.722;2023-05-21T01:36:41;18.90;60.00
80176;DHT22;69501;42.124;24.722;2023-05-21T01:39:37;18.80;59.60
80176;DHT22;69501;42.124;24.722;2023-05-21T01:42:06;18.80;59.70
80176;DHT22;69501;42.124;24.722;2023-05-21T01:47:11;18.90;59.80
80176;DHT22;69501;42.124;24.722;2023-05-21T01:49:37;18.90;59.80
80176;DHT22;69501;42.124;24.722;2023-05-21T01:52:03;18.90;59.90
80176;DHT22;69501;42.124;24.722;2023-05-21T01:54:29;18.90;60.00
80176;DHT22;69501;42.124;24.722;2023-05-21T01:56:55;18.90;60.00
80176;DHT22;69501;42.124;24.722;2023-05-21T01:59:21;18.90;60.00
80176;DHT22;69501;42.124;24.722;2023-05-21T02:01:46;18.90;60.10
80176;DHT22;69501;42.124;24.722;2023-05-21T02:04:12;18.90;60.10
80176;DHT22;69501;42.124;24.722;2023-05-21T02:06:38;18.90;60.10
80176;DHT22;69501;42.124;24.722;2023-05-21T02:09:04;18.90;60.00
80176;DHT22;69501;42.124;24.722;2023-05-21T02:11:29;18.90;59.90
80176;DHT22;69501;42.124;24.722;2023-05-21T02:13:56;18.90;59.90
80176;DHT22;69501;42.124;24.722;2023-05-21T02:16:21;18.90;59.50
80176;DHT22;69501;42.124;24.722;2023-05-21T02:18:47;18.90;59.50
80176;DHT22;69501;42.124;24.722;2023-05-21T02:21:16;18.90;59.50
80176;DHT22;69501;42.124;24.722;2023-05-21T02:23:41;18.80;59.60
80176;DHT22;69501;42.124;24.722;2023-05-21T02:26:07;18.80;59.80
80176;DHT22;69501;42.124;24.722;2023-05-21T02:28:33;18.80;59.70
80176;DHT22;69501;42.124;24.722;2023-05-21T02:31:00;18.80;59.70
80176;DHT22;69501;42.124;24.722;2023-05-21T02:33:26;18.80;59.50
80176;DHT22;69501;42.124;24.722;2023-05-21T02:35:52;18.90;59.50
80176;DHT22;69501;42.124;24.722;2023-05-21T02:38:17;18.90;59.40
80176;DHT22;69501;42.124;24.722;2023-05-21T02:40:45;19.00;59.50
80176;DHT22;69501;42.124;24.722;2023-05-21T02:43:10;19.00;59.30
80176;DHT22;69501;42.124;24.722;2023-05-21T02:45:36;19.00;59.20
80176;DHT22;69501;42.124;24.722;2023-05-21T02:48:02;19.00;59.30
80176;DHT22;69501;42.124;24.722;2023-05-21T02:50:27;19.00;59.30
80176;DHT22;69501;42.124;24.722;2023-05-21T02:52:53;19.00;59.10
80176;DHT22;69501;42.124;24.722;2023-05-21T02:55:19;19.00;59.10
80176;DHT22;69501;42.124;24.722;2023-05-21T02:57:45;19.00;59.10
80176;DHT22;69501;42.124;24.722;2023-05-21T03:00:11;19.00;59.30
80176;DHT22;69501;42.124;24.722;2023-05-21T03:02:37;19.00;59.30
80176;DHT22;69501;42.124;24.722;2023-05-21T03:05:02;19.00;59.20
80176;DHT22;69501;42.124;24.722;2023-05-21T03:07:28;19.00;59.30
80176;DHT22;69501;42.124;24.722;2023-05-21T03:09:54;19.10;59.30
80176;DHT22;69501;42.124;24.722;2023-05-21T03:12:19;19.10;59.30
80176;DHT22;69501;42.124;24.722;2023-05-21T03:14:45;19.10;59.30
80176;DHT22;69501;42.124;24.722;2023-05-21T03:17:11;19.10;59.50
80176;DHT22;69501;42.124;24.722;2023-05-21T03:19:40;19.10;59.20
80176;DHT22;69501;42.124;24.722;2023-05-21T03:22:06;19.10;59.30
80176;DHT22;69501;42.124;24.722;2023-05-21T03:24:32;19.00;59.40
80176;DHT22;69501;42.124;24.722;2023-05-21T03:27:00;18.90;59.50
80176;DHT22;69501;42.124;24.722;2023-05-21T03:29:26;18.90;59.70
80176;DHT22;69501;42.124;24.722;2023-05-21T03:31:53;18.90;60.00
80176;DHT22;69501;42.124;24.722;2023-05-21T03:34:19;18.90;60.00
80176;DHT22;69501;42.124;24.722;2023-05-21T03:36:48;18.90;60.10
80176;DHT22;69501;42.124;24.722;2023-05-21T03:39:14;18.90;60.10
80176;DHT22;69501;42.124;24.722;2023-05-21T03:41:40;19.00;60.10
80176;DHT22;69501;42.124;24.722;2023-05-21T03:44:05;18.90;60.10
80176;DHT22;69501;42.124;24.722;2023-05-21T03:46:31;18.80;60.40
80176;DHT22;69501;42.124;24.722;2023-05-21T03:48:57;18.80;60.60
80176;DHT22;69501;42.124;24.722;2023-05-21T03:51:23;18.80;60.60
80176;DHT22;69501;42.124;24.722;2023-05-21T03:53:50;18.80;60.70
80176;DHT22;69501;42.124;24.722;2023-05-21T03:56:16;18.90;60.50
80176;DHT22;69501;42.124;24.722;2023-05-21T03:58:42;18.90;60.20
80176;DHT22;69501;42.124;24.722;2023-05-21T04:01:07;18.90;60.10
80176;DHT22;69501;42.124;24.722;2023-05-21T04:03:34;18.90;60.10
80176;DHT22;69501;42.124;24.722;2023-05-21T04:06:03;18.90;60.10
80176;DHT22;69501;42.124;24.722;2023-05-21T04:08:29;18.80;60.30
80176;DHT22;69501;42.124;24.722;2023-05-21T04:10:55;18.80;60.50
80176;DHT22;69501;42.124;24.722;2023-05-21T04:13:21;18.80;60.70
80176;DHT22;69501;42.124;24.722;2023-05-21T04:15:46;18.80;60.90
80176;DHT22;69501;42.124;24.722;2023-05-21T04:18:13;18.80;61.10
80176;DHT22;69501;42.124;24.722;2023-05-21T04:20:40;18.80;61.10
80176;DHT22;69501;42.124;24.722;2023-05-21T04:23:06;18.90;61.00
80176;DHT22;69501;42.124;24.722;2023-05-21T04:25:32;18.90;60.80
80176;DHT22;69501;42.124;24.722;2023-05-21T04:27:58;18.90;60.50
80176;DHT22;69501;42.124;24.722;2023-05-21T04:30:24;18.90;60.70
80176;DHT22;69501;42.124;24.722;2023-05-21T04:32:50;19.00;60.90
80176;DHT22;69501;42.124;24.722;2023-05-21T04:35:17;19.00;60.50
80176;DHT22;69501;42.124;24.722;2023-05-21T04:37:42;19.10;60.30
80176;DHT22;69501;42.124;24.722;2023-05-21T04:40:11;19.10;60.20
80176;DHT22;69501;42.124;24.722;2023-05-21T04:42:45;19.10;60.20
80176;DHT22;69501;42.124;24.722;2023-05-21T04:45:15;19.10;60.20
80176;DHT22;69501;42.124;24.722;2023-05-21T04:47:42;19.20;60.20
80176;DHT22;69501;42.124;24.722;2023-05-21T04:50:08;19.20;59.80
80176;DHT22;69501;42.124;24.722;2023-05-21T04:52:35;19.30;59.30
80176;DHT22;69501;42.124;24.722;2023-05-21T04:55:01;19.30;59.30
80176;DHT22;69501;42.124;24.722;2023-05-21T04:57:27;19.30;59.30
80176;DHT22;69501;42.124;24.722;2023-05-21T04:59:54;19.40;59.30
80176;DHT22;69501;42.124;24.722;2023-05-21T05:02:20;19.40;59.80
80176;DHT22;69501;42.124;24.722;2023-05-21T05:04:46;19.60;60.70
80176;DHT22;69501;42.124;24.722;2023-05-21T05:07:11;19.70;60.70
80176;DHT22;69501;42.124;24.722;2023-05-21T05:09:37;19.80;61.40
80176;DHT22;69501;42.124;24.722;2023-05-21T05:12:03;19.90;61.20
80176;DHT22;69501;42.124;24.722;2023-05-21T05:14:29;20.00;60.70
80176;DHT22;69501;42.124;24.722;2023-05-21T05:16:55;20.00;60.10
80176;DHT22;69501;42.124;24.722;2023-05-21T05:19:27;20.10;59.30
80176;DHT22;69501;42.124;24.722;2023-05-21T05:21:53;20.10;58.90
80176;DHT22;69501;42.124;24.722;2023-05-21T05:24:18;20.10;58.30
80176;DHT22;69501;42.124;24.722;2023-05-21T05:26:44;20.20;58.60
80176;DHT22;69501;42.124;24.722;2023-05-21T05:29:10;20.20;58.30
80176;DHT22;69501;42.124;24.722;2023-05-21T05:31:36;20.30;58.20
80176;DHT22;69501;42.124;24.722;2023-05-21T05:34:01;20.30;57.60
80176;DHT22;69501;42.124;24.722;2023-05-21T05:36:27;20.30;57.10
80176;DHT22;69501;42.124;24.722;2023-05-21T05:38:53;20.40;57.20
80176;DHT22;69501;42.124;24.722;2023-05-21T05:41:18;20.40;56.40
80176;DHT22;69501;42.124;24.722;2023-05-21T05:43:44;20.40;56.70
80176;DHT22;69501;42.124;24.722;2023-05-21T05:46:09;20.50;56.70
80176;DHT22;69501;42.124;24.722;2023-05-21T05:48:35;20.40;56.30
80176;DHT22;69501;42.124;24.722;2023-05-21T05:51:01;20.50;56.50
80176;DHT22;69501;42.124;24.722;2023-05-21T05:53:26;20.50;57.90
80176;DHT22;69501;42.124;24.722;2023-05-21T05:55:52;20.60;56.80
80176;DHT22;69501;42.124;24.722;2023-05-21T05:58:18;20.70;56.90
80176;DHT22;69501;42.124;24.722;2023-05-21T06:00:44;20.70;56.80
80176;DHT22;69501;42.124;24.722;2023-05-21T06:03:09;20.70;56.50
80176;DHT22;69501;42.124;24.722;2023-05-21T06:05:36;20.80;56.60
80176;DHT22;69501;42.124;24.722;2023-05-21T06:08:02;20.80;56.50
80176;DHT22;69501;42.124;24.722;2023-05-21T06:10:27;20.80;56.60
80176;DHT22;69501;42.124;24.722;2023-05-21T06:12:53;20.90;56.50
80176;DHT22;69501;42.124;24.722;2023-05-21T06:15:19;20.80;56.80
80176;DHT22;69501;42.124;24.722;2023-05-21T06:17:44;20.90;56.90
80176;DHT22;69501;42.124;24.722;2023-05-21T06:20:10;20.80;57.00
80176;DHT22;69501;42.124;24.722;2023-05-21T06:22:36;20.90;56.90
80176;DHT22;69501;42.124;24.722;2023-05-21T06:25:03;20.80;56.60
80176;DHT22;69501;42.124;24.722;2023-05-21T06:27:28;20.60;56.50
80176;DHT22;69501;42.124;24.722;2023-05-21T06:29:55;20.60;57.40
80176;DHT22;69501;42.124;24.722;2023-05-21T06:32:21;20.60;58.00
80176;DHT22;69501;42.124;24.722;2023-05-21T06:34:47;20.70;57.60
80176;DHT22;69501;42.124;24.722;2023-05-21T06:37:13;20.70;57.40
80176;DHT22;69501;42.124;24.722;2023-05-21T06:39:39;20.70;56.20
80176;DHT22;69501;42.124;24.722;2023-05-21T06:42:05;20.70;56.70
80176;DHT22;69501;42.124;24.722;2023-05-21T06:44:30;20.70;56.80
80176;DHT22;69501;42.124;24.722;2023-05-21T06:46:56;20.70;56.40
80176;DHT22;69501;42.124;24.722;2023-05-21T06:49:21;20.60;56.50
80176;DHT22;69501;42.124;24.722;2023-05-21T06:51:47;20.60;58.00
80176;DHT22;69501;42.124;24.722;2023-05-21T06:54:13;20.60;60.90
80176;DHT22;69501;42.124;24.722;2023-05-21T06:56:39;20.70;63.80
80176;DHT22;69501;42.124;24.722;2023-05-21T06:59:05;20.90;65.20
80176;DHT22;69501;42.124;24.722;2023-05-21T07:01:30;21.10;61.50
80176;DHT22;69501;42.124;24.722;2023-05-21T07:03:56;21.20;58.20
80176;DHT22;69501;42.124;24.722;2023-05-21T07:06:22;21.30;57.70
80176;DHT22;69501;42.124;24.722;2023-05-21T07:08:48;21.30;57.30
80176;DHT22;69501;42.124;24.722;2023-05-21T07:11:14;21.40;56.70
80176;DHT22;69501;42.124;24.722;2023-05-21T07:13:40;21.40;56.70
80176;DHT22;69501;42.124;24.722;2023-05-21T07:16:06;21.50;55.90
80176;DHT22;69501;42.124;24.722;2023-05-21T07:18:31;21.50;56.30
80176;DHT22;69501;42.124;24.722;2023-05-21T07:20:57;21.80;57.00
80176;DHT22;69501;42.124;24.722;2023-05-21T07:23:23;22.00;56.70
80176;DHT22;69501;42.124;24.722;2023-05-21T07:25:49;22.10;54.10
80176;DHT22;69501;42.124;24.722;2023-05-21T07:28:15;22.20;53.90
80176;DHT22;69501;42.124;24.722;2023-05-21T07:30:50;22.20;54.50
80176;DHT22;69501;42.124;24.722;2023-05-21T07:33:16;22.30;54.80
80176;DHT22;69501;42.124;24.722;2023-05-21T07:35:41;22.50;53.50
80176;DHT22;69501;42.124;24.722;2023-05-21T07:38:07;22.50;49.80
80176;DHT22;69501;42.124;24.722;2023-05-21T07:40:32;22.50;48.70
80176;DHT22;69501;42.124;24.722;2023-05-21T07:42:58;22.50;48.20
80176;DHT22;69501;42.124;24.722;2023-05-21T07:45:24;22.50;49.00
80176;DHT22;69501;42.124;24.722;2023-05-21T07:47:49;22.50;48.10
80176;DHT22;69501;42.124;24.722;2023-05-21T07:50:15;22.60;47.30
80176;DHT22;69501;42.124;24.722;2023-05-21T07:52:41;22.60;47.00
80176;DHT22;69501;42.124;24.722;2023-05-21T07:55:07;22.70;47.40
80176;DHT22;69501;42.124;24.722;2023-05-21T07:57:33;22.80;49.60
80176;DHT22;69501;42.124;24.722;2023-05-21T08:00:00;22.90;47.80
80176;DHT22;69501;42.124;24.722;2023-05-21T08:02:26;23.10;49.20
80176;DHT22;69501;42.124;24.722;2023-05-21T08:04:51;23.10;48.80
80176;DHT22;69501;42.124;24.722;2023-05-21T08:07:19;23.20;48.70
80176;DHT22;69501;42.124;24.722;2023-05-21T08:09:46;23.30;47.40
80176;DHT22;69501;42.124;24.722;2023-05-21T08:12:12;23.50;47.40
80176;DHT22;69501;42.124;24.722;2023-05-21T08:14:40;23.50;44.50
80176;DHT22;69501;42.124;24.722;2023-05-21T08:17:08;23.60;43.70
80176;DHT22;69501;42.124;24.722;2023-05-21T08:19:35;23.70;42.80
80176;DHT22;69501;42.124;24.722;2023-05-21T08:22:01;23.60;42.90
80176;DHT22;69501;42.124;24.722;2023-05-21T08:24:27;23.60;42.20
80176;DHT22;69501;42.124;24.722;2023-05-21T08:26:53;23.50;44.10
80176;DHT22;69501;42.124;24.722;2023-05-21T08:29:19;23.50;43.50
80176;DHT22;69501;42.124;24.722;2023-05-21T08:31:45;23.50;43.40
80176;DHT22;69501;42.124;24.722;2023-05-21T08:34:10;23.50;42.70
80176;DHT22;69501;42.124;24.722;2023-05-21T08:36:37;23.50;42.60
80176;DHT22;69501;42.124;24.722;2023-05-21T08:39:02;23.50;43.80
80176;DHT22;69501;42.124;24.722;2023-05-21T08:41:30;23.60;43.20
80176;DHT22;69501;42.124;24.722;2023-05-21T08:43:55;23.60;42.10
80176;DHT22;69501;42.124;24.722;2023-05-21T08:46:24;23.50;41.80
80176;DHT22;69501;42.124;24.722;2023-05-21T08:48:51;23.30;41.10
80176;DHT22;69501;42.124;24.722;2023-05-21T08:51:21;23.30;41.10
80176;DHT22;69501;42.124;24.722;2023-05-21T08:53:47;23.30;41.20
80176;DHT22;69501;42.124;24.722;2023-05-21T08:56:18;23.20;42.40
80176;DHT22;69501;42.124;24.722;2023-05-21T08:58:46;23.20;40.90
80176;DHT22;69501;42.124;24.722;2023-05-21T09:01:12;23.10;38.50
80176;DHT22;69501;42.124;24.722;2023-05-21T09:03:39;23.00;38.60
80176;DHT22;69501;42.124;24.722;2023-05-21T09:06:09;22.80;39.10
80176;DHT22;69501;42.124;24.722;2023-05-21T09:08:37;22.80;39.40
80176;DHT22;69501;42.124;24.722;2023-05-21T09:11:07;22.70;39.70
80176;DHT22;69501;42.124;24.722;2023-05-21T09:13:33;22.60;40.00
80176;DHT22;69501;42.124;24.722;2023-05-21T09:16:00;22.60;38.90
80176;DHT22;69501;42.124;24.722;2023-05-21T09:18:25;22.60;39.70
80176;DHT22;69501;42.124;24.722;2023-05-21T09:20:52;22.60;39.50
80176;DHT22;69501;42.124;24.722;2023-05-21T09:23:19;22.70;38.50
80176;DHT22;69501;42.124;24.722;2023-05-21T09:25:46;22.60;37.80
80176;DHT22;69501;42.124;24.722;2023-05-21T09:28:13;22.60;38.70
80176;DHT22;69501;42.124;24.722;2023-05-21T09:30:46;22.50;38.70
80176;DHT22;69501;42.124;24.722;2023-05-21T09:33:23;22.50;39.50
80176;DHT22;69501;42.124;24.722;2023-05-21T09:35:50;22.50;39.90
80176;DHT22;69501;42.124;24.722;2023-05-21T09:38:16;22.50;40.50
80176;DHT22;69501;42.124;24.722;2023-05-21T09:40:45;22.60;39.80
80176;DHT22;69501;42.124;24.722;2023-05-21T09:43:14;22.70;39.90
80176;DHT22;69501;42.124;24.722;2023-05-21T09:45:50;22.80;40.60
80176;DHT22;69501;42.124;24.722;2023-05-21T09:48:16;22.70;45.90
80176;DHT22;69501;42.124;24.722;2023-05-21T09:53:35;22.40;46.30
80176;DHT22;69501;42.124;24.722;2023-05-21T09:56:01;22.10;46.20
80176;DHT22;69501;42.124;24.722;2023-05-21T09:58:28;22.00;47.00
80176;DHT22;69501;42.124;24.722;2023-05-21T10:00:53;21.90;45.60
80176;DHT22;69501;42.124;24.722;2023-05-21T10:03:22;21.70;45.40
80176;DHT22;69501;42.124;24.722;2023-05-21T10:05:50;21.70;45.80
80176;DHT22;69501;42.124;24.722;2023-05-21T10:08:17;21.70;45.90
80176;DHT22;69501;42.124;24.722;2023-05-21T10:10:46;21.70;47.60
80176;DHT22;69501;42.124;24.722;2023-05-21T10:13:13;21.70;50.20
80176;DHT22;69501;42.124;24.722;2023-05-21T10:15:47;21.70;49.30
80176;DHT22;69501;42.124;24.722;2023-05-21T10:18:15;21.70;49.10
80176;DHT22;69501;42.124;24.722;2023-05-21T10:20:43;21.60;49.50
80176;DHT22;69501;42.124;24.722;2023-05-21T10:23:10;21.60;49.30
80176;DHT22;69501;42.124;24.722;2023-05-21T10:25:37;21.60;48.90
80176;DHT22;69501;42.124;24.722;2023-05-21T10:28:03;21.60;49.70
80176;DHT22;69501;42.124;24.722;2023-05-21T10:30:31;21.60;51.40
80176;DHT22;69501;42.124;24.722;2023-05-21T10:32:57;21.60;50.00
80176;DHT22;69501;42.124;24.722;2023-05-21T10:35:24;21.50;50.40
80176;DHT22;69501;42.124;24.722;2023-05-21T10:37:50;21.50;52.10
80176;DHT22;69501;42.124;24.722;2023-05-21T10:40:17;21.50;52.30
80176;DHT22;69501;42.124;24.722;2023-05-21T10:46:24;21.40;52.60
80176;DHT22;69501;42.124;24.722;2023-05-21T10:59:47;21.10;52.30
80176;DHT22;69501;42.124;24.722;2023-05-21T11:02:15;21.00;51.80
80176;DHT22;69501;42.124;24.722;2023-05-21T11:04:45;20.80;51.30
80176;DHT22;69501;42.124;24.722;2023-05-21T11:07:14;20.80;53.20
80176;DHT22;69501;42.124;24.722;2023-05-21T11:09:40;20.60;52.80
80176;DHT22;69501;42.124;24.722;2023-05-21T11:12:05;20.50;52.10
80176;DHT22;69501;42.124;24.722;2023-05-21T11:14:36;20.40;51.30
80176;DHT22;69501;42.124;24.722;2023-05-21T11:17:39;20.30;52.90
80176;DHT22;69501;42.124;24.722;2023-05-21T11:20:10;20.30;53.50
80176;DHT22;69501;42.124;24.722;2023-05-21T11:22:38;20.10;53.20
80176;DHT22;69501;42.124;24.722;2023-05-21T11:25:04;20.10;53.30
80176;DHT22;69501;42.124;24.722;2023-05-21T11:29:58;20.20;53.50
80176;DHT22;69501;42.124;24.722;2023-05-21T11:32:24;20.30;53.90
80176;DHT22;69501;42.124;24.722;2023-05-21T11:34:50;20.30;51.30
80176;DHT22;69501;42.124;24.722;2023-05-21T11:39:42;20.40;53.30
80176;DHT22;69501;42.124;24.722;2023-05-21T11:42:08;20.40;53.00
80176;DHT22;69501;42.124;24.722;2023-05-21T11:44:46;20.40;52.80
80176;DHT22;69501;42.124;24.722;2023-05-21T11:47:16;20.40;52.80
80176;DHT22;69501;42.124;24.722;2023-05-21T11:49:45;20.40;52.90
80176;DHT22;69501;42.124;24.722;2023-05-21T11:52:12;20.40;52.80
80176;DHT22;69501;42.124;24.722;2023-05-21T11:54:50;20.50;53.00
80176;DHT22;69501;42.124;24.722;2023-05-21T11:57:18;20.60;52.60
80176;DHT22;69501;42.124;24.722;2023-05-21T11:59:44;20.60;53.00
80176;DHT22;69501;42.124;24.722;2023-05-21T12:02:14;20.60;52.20
80176;DHT22;69501;42.124;24.722;2023-05-21T12:04:45;20.60;52.00
80176;DHT22;69501;42.124;24.722;2023-05-21T12:07:13;20.60;52.10
80176;DHT22;69501;42.124;24.722;2023-05-21T12:09:40;20.70;52.10
80176;DHT22;69501;42.124;24.722;2023-05-21T12:12:14;20.70;52.20
80176;DHT22;69501;42.124;24.722;2023-05-21T12:14:44;20.80;52.80
80176;DHT22;69501;42.124;24.722;2023-05-21T12:17:11;20.90;53.50
80176;DHT22;69501;42.124;24.722;2023-05-21T12:19:41;20.90;53.20
80176;DHT22;69501;42.124;24.722;2023-05-21T12:22:07;21.00;53.50
80176;DHT22;69501;42.124;24.722;2023-05-21T12:24:34;21.20;53.80
80176;DHT22;69501;42.124;24.722;2023-05-21T12:27:01;21.20;52.90
80176;DHT22;69501;42.124;24.722;2023-05-21T12:29:30;21.30;53.30
80176;DHT22;69501;42.124;24.722;2023-05-21T12:32:00;21.40;54.70
80176;DHT22;69501;42.124;24.722;2023-05-21T12:37:16;21.50;52.80
80176;DHT22;69501;42.124;24.722;2023-05-21T12:39:46;21.50;52.80
80176;DHT22;69501;42.124;24.722;2023-05-21T12:42:13;21.50;53.30
80176;DHT22;69501;42.124;24.722;2023-05-21T12:44:42;21.60;54.10
80176;DHT22;69501;42.124;24.722;2023-05-21T12:47:09;21.60;53.50
80176;DHT22;69501;42.124;24.722;2023-05-21T12:49:42;21.70;53.00
80176;DHT22;69501;42.124;24.722;2023-05-21T12:52:10;21.80;52.80
80176;DHT22;69501;42.124;24.722;2023-05-21T12:54:38;21.80;53.00
80176;DHT22;69501;42.124;24.722;2023-05-21T12:57:13;21.80;54.10
80176;DHT22;69501;42.124;24.722;2023-05-21T13:02:20;21.90;53.30
80176;DHT22;69501;42.124;24.722;2023-05-21T13:04:46;22.00;53.40
80176;DHT22;69501;42.124;24.722;2023-05-21T13:07:13;22.10;53.50
80176;DHT22;69501;42.124;24.722;2023-05-21T13:09:40;22.10;52.80
80176;DHT22;69501;42.124;24.722;2023-05-21T13:12:06;22.20;53.10
80176;DHT22;69501;42.124;24.722;2023-05-21T13:14:31;22.30;54.10
80176;DHT22;69501;42.124;24.722;2023-05-21T13:16:57;22.40;52.90
80176;DHT22;69501;42.124;24.722;2023-05-21T13:19:23;22.40;52.10
80176;DHT22;69501;42.124;24.722;2023-05-21T13:21:48;22.50;51.60
80176;DHT22;69501;42.124;24.722;2023-05-21T13:24:14;22.50;51.10
80176;DHT22;69501;42.124;24.722;2023-05-21T13:26:40;22.50;51.20
80176;DHT22;69501;42.124;24.722;2023-05-21T13:29:06;22.50;50.90
80176;DHT22;69501;42.124;24.722;2023-05-21T13:31:31;22.60;51.10
80176;DHT22;69501;42.124;24.722;2023-05-21T13:33:57;22.60;50.30
80176;DHT22;69501;42.124;24.722;2023-05-21T13:36:22;22.70;50.10
80176;DHT22;69501;42.124;24.722;2023-05-21T13:38:48;22.70;49.90
80176;DHT22;69501;42.124;24.722;2023-05-21T13:41:14;22.60;49.80
80176;DHT22;69501;42.124;24.722;2023-05-21T13:43:42;22.70;49.80
80176;DHT22;69501;42.124;24.722;2023-05-21T13:46:08;22.70;50.10
80176;DHT22;69501;42.124;24.722;2023-05-21T13:48:34;22.70;50.40
80176;DHT22;69501;42.124;24.722;2023-05-21T13:51:00;22.70;50.30
80176;DHT22;69501;42.124;24.722;2023-05-21T13:53:25;22.70;49.10
80176;DHT22;69501;42.124;24.722;2023-05-21T13:55:51;22.70;49.50
80176;DHT22;69501;42.124;24.722;2023-05-21T13:58:17;22.70;48.50
80176;DHT22;69501;42.124;24.722;2023-05-21T14:00:42;22.70;49.20
80176;DHT22;69501;42.124;24.722;2023-05-21T14:03:08;22.70;48.10
80176;DHT22;69501;42.124;24.722;2023-05-21T14:05:35;22.70;48.80
80176;DHT22;69501;42.124;24.722;2023-05-21T14:08:01;22.70;48.80
80176;DHT22;69501;42.124;24.722;2023-05-21T14:10:27;22.70;48.20
80176;DHT22;69501;42.124;24.722;2023-05-21T14:12:52;22.70;49.00
80176;DHT22;69501;42.124;24.722;2023-05-21T14:15:18;22.70;49.10
80176;DHT22;69501;42.124;24.722;2023-05-21T14:17:44;22.70;49.80
80176;DHT22;69501;42.124;24.722;2023-05-21T14:20:10;22.70;50.90
80176;DHT22;69501;42.124;24.722;2023-05-21T14:22:36;22.70;51.40
80176;DHT22;69501;42.124;24.722;2023-05-21T14:25:02;22.80;50.30
80176;DHT22;69501;42.124;24.722;2023-05-21T14:27:28;22.80;50.00
80176;DHT22;69501;42.124;24.722;2023-05-21T14:29:53;22.80;49.60
80176;DHT22;69501;42.124;24.722;2023-05-21T14:32:19;22.90;49.60
80176;DHT22;69501;42.124;24.722;2023-05-21T14:34:45;22.90;49.70
80176;DHT22;69501;42.124;24.722;2023-05-21T14:37:10;22.90;50.00
80176;DHT22;69501;42.124;24.722;2023-05-21T14:39:36;22.90;49.80
80176;DHT22;69501;42.124;24.722;2023-05-21T14:42:02;22.90;50.20
80176;DHT22;69501;42.124;24.722;2023-05-21T14:44:29;22.90;49.90
80176;DHT22;69501;42.124;24.722;2023-05-21T14:46:54;23.00;50.30
80176;DHT22;69501;42.124;24.722;2023-05-21T14:49:20;23.00;49.80
80176;DHT22;69501;42.124;24.722;2023-05-21T14:51:46;23.00;49.20
80176;DHT22;69501;42.124;24.722;2023-05-21T14:54:12;23.00;49.50
80176;DHT22;69501;42.124;24.722;2023-05-21T14:56:38;23.00;49.30
80176;DHT22;69501;42.124;24.722;2023-05-21T14:59:03;23.00;49.10
80176;DHT22;69501;42.124;24.722;2023-05-21T15:01:29;23.00;48.20
80176;DHT22;69501;42.124;24.722;2023-05-21T15:03:55;23.00;47.80
80176;DHT22;69501;42.124;24.722;2023-05-21T15:06:22;23.00;48.00
80176;DHT22;69501;42.124;24.722;2023-05-21T15:08:48;23.00;47.60
80176;DHT22;69501;42.124;24.722;2023-05-21T15:11:14;23.00;47.50
80176;DHT22;69501;42.124;24.722;2023-05-21T15:13:40;22.90;48.10
80176;DHT22;69501;42.124;24.722;2023-05-21T15:16:05;22.90;49.00
80176;DHT22;69501;42.124;24.722;2023-05-21T15:18:31;22.90;49.10
80176;DHT22;69501;42.124;24.722;2023-05-21T15:20:57;22.90;48.70
80176;DHT22;69501;42.124;24.722;2023-05-21T15:23:23;22.90;48.70
80176;DHT22;69501;42.124;24.722;2023-05-21T15:25:49;22.90;48.90
80176;DHT22;69501;42.124;24.722;2023-05-21T15:28:15;22.90;48.70
80176;DHT22;69501;42.124;24.722;2023-05-21T15:30:40;22.90;48.60
80176;DHT22;69501;42.124;24.722;2023-05-21T15:33:06;22.90;48.50
80176;DHT22;69501;42.124;24.722;2023-05-21T15:35:32;22.90;48.40
80176;DHT22;69501;42.124;24.722;2023-05-21T15:37:57;22.90;48.30
80176;DHT22;69501;42.124;24.722;2023-05-21T15:40:23;22.90;48.40
80176;DHT22;69501;42.124;24.722;2023-05-21T15:42:48;22.90;48.10
80176;DHT22;69501;42.124;24.722;2023-05-21T15:45:14;22.90;48.30